createdAt,value
2022-11-08T00:00:01.659Z,75.04
2022-11-08T00:01:01.825Z,74.99
2022-11-08T00:02:01.746Z,74.98
2022-11-08T00:03:01.691Z,74.95
2022-11-08T00:04:01.600Z,74.96
2022-11-08T00:05:01.607Z,74.94
2022-11-08T00:06:01.587Z,74.92
2022-11-08T00:07:01.751Z,74.94
2022-11-08T00:08:01.562Z,74.88
2022-11-08T00:09:01.556Z,74.83
2022-11-08T00:10:01.549Z,74.74
2022-11-08T00:11:01.536Z,74.76
2022-11-08T00:12:01.531Z,74.84
2022-11-08T00:13:01.661Z,74.84
2022-11-08T00:14:01.495Z,74.86
2022-11-08T00:15:01.500Z,74.85
2022-11-08T00:16:01.481Z,74.97
2022-11-08T00:17:01.469Z,74.96
2022-11-08T00:18:01.608Z,74.94
2022-11-08T00:19:01.441Z,74.96
2022-11-08T00:20:01.451Z,74.88
2022-11-08T00:21:01.429Z,74.83
2022-11-08T00:22:01.419Z,74.82
2022-11-08T00:23:01.738Z,74.79
2022-11-08T00:24:01.406Z,74.74
2022-11-08T00:25:01.377Z,74.72
2022-11-08T00:26:01.366Z,74.67
2022-11-08T00:27:01.354Z,74.67
2022-11-08T00:28:01.397Z,74.74
2022-11-08T00:29:01.503Z,74.86
2022-11-08T00:30:01.322Z,74.99
2022-11-08T00:31:01.311Z,75.07
2022-11-08T00:32:01.336Z,75.28
2022-11-08T00:33:01.293Z,75.37
2022-11-08T00:34:01.300Z,75.40
2022-11-08T00:35:01.444Z,75.47
2022-11-08T00:36:01.253Z,75.52
2022-11-08T00:37:01.276Z,75.51
2022-11-08T00:38:01.240Z,75.54
2022-11-08T00:39:01.252Z,75.65
2022-11-08T00:40:01.295Z,75.78
2022-11-08T00:41:01.391Z,75.89
2022-11-08T00:42:01.211Z,76.03
2022-11-08T00:43:01.188Z,76.13
2022-11-08T00:44:01.209Z,76.22
2022-11-08T00:45:01.450Z,76.31
2022-11-08T00:46:01.186Z,76.42
2022-11-08T00:47:01.192Z,76.48
2022-11-08T00:48:01.128Z,76.45
2022-11-08T00:49:01.117Z,76.47
2022-11-08T00:50:01.145Z,76.46
2022-11-08T00:51:01.278Z,76.35
2022-11-08T00:52:01.102Z,76.25
2022-11-08T00:53:01.124Z,76.20
2022-11-08T00:54:01.097Z,76.18
2022-11-08T00:55:01.259Z,76.08
2022-11-08T00:56:01.059Z,76.02
2022-11-08T00:57:01.051Z,76.02
2022-11-08T00:58:01.041Z,75.99
2022-11-08T00:59:01.020Z,75.98
2022-11-08T01:00:01.008Z,76.02
2022-11-08T01:01:01.248Z,76.27
2022-11-08T01:02:01.031Z,76.35
2022-11-08T01:03:00.960Z,76.22
2022-11-08T01:04:00.950Z,76.12
2022-11-08T01:05:00.957Z,76.20
2022-11-08T01:06:01.097Z,76.14
2022-11-08T01:07:00.911Z,76.12
2022-11-08T01:08:00.907Z,76.26
2022-11-08T01:09:00.910Z,76.33
2022-11-08T01:10:00.898Z,76.35
2022-11-08T01:11:01.209Z,76.42
2022-11-08T01:12:00.869Z,76.53
2022-11-08T01:13:00.861Z,76.67
2022-11-08T01:14:00.837Z,76.74
2022-11-08T01:15:00.892Z,76.56
2022-11-08T01:16:00.824Z,76.45
2022-11-08T01:17:01.046Z,76.40
2022-11-08T01:18:00.820Z,76.40
2022-11-08T01:19:00.818Z,76.41
2022-11-08T01:20:00.784Z,76.26
2022-11-08T01:21:00.781Z,76.24
2022-11-08T01:22:00.756Z,76.25
2022-11-08T01:23:00.908Z,76.24
2022-11-08T01:24:00.737Z,76.28
2022-11-08T01:25:00.737Z,76.34
2022-11-08T01:26:00.739Z,76.44
2022-11-08T01:27:00.714Z,76.52
2022-11-08T01:28:00.860Z,76.48
2022-11-08T01:29:00.693Z,76.46
2022-11-08T01:30:00.677Z,76.49
2022-11-08T01:31:00.670Z,76.48
2022-11-08T01:32:00.662Z,76.45
2022-11-08T01:33:00.650Z,76.49
2022-11-08T01:34:00.797Z,76.56
2022-11-08T01:35:00.621Z,76.69
2022-11-08T01:36:00.615Z,76.82
2022-11-08T01:37:00.605Z,76.83
2022-11-08T01:38:00.599Z,76.88
2022-11-08T01:39:00.580Z,76.96
2022-11-08T01:40:00.764Z,77.06
2022-11-08T01:41:00.567Z,77.11
2022-11-08T01:42:00.557Z,77.15
2022-11-08T01:43:00.539Z,77.05
2022-11-08T01:46:18.657Z,77.00
2022-11-08T01:47:18.473Z,77.26
2022-11-08T01:48:18.733Z,77.25
2022-11-08T01:49:18.453Z,77.28
2022-11-08T01:50:18.435Z,77.29
2022-11-08T01:51:18.439Z,77.19
2022-11-08T01:52:18.604Z,77.22
2022-11-08T01:53:18.415Z,77.29
2022-11-08T01:54:18.392Z,77.36
2022-11-08T01:55:18.380Z,77.25
2022-11-08T01:56:18.375Z,77.08
2022-11-08T01:57:18.365Z,77.08
2022-11-08T01:58:18.802Z,77.04
2022-11-08T01:59:18.339Z,77.03
2022-11-08T02:00:18.330Z,76.98
2022-11-08T02:01:18.370Z,77.02
2022-11-08T02:02:18.361Z,77.05
2022-11-08T02:03:18.499Z,77.15
2022-11-08T02:04:18.311Z,77.08
2022-11-08T02:05:18.285Z,77.00
2022-11-08T02:06:18.273Z,76.94
2022-11-08T02:07:18.260Z,76.93
2022-11-08T02:08:18.565Z,76.96
2022-11-08T02:09:18.474Z,77.01
2022-11-08T02:10:18.236Z,77.02
2022-11-08T02:11:18.226Z,77.08
2022-11-08T02:12:18.204Z,77.11
2022-11-08T02:13:18.196Z,77.13
2022-11-08T02:14:18.176Z,77.19
2022-11-08T02:15:18.337Z,77.16
2022-11-08T02:16:18.182Z,77.18
2022-11-08T02:17:18.144Z,77.19
2022-11-08T02:18:18.385Z,77.17
2022-11-08T02:19:18.299Z,77.14
2022-11-08T02:20:18.104Z,77.18
2022-11-08T02:21:18.103Z,77.16
2022-11-08T02:22:18.104Z,77.16
2022-11-08T02:23:18.076Z,77.17
2022-11-08T02:24:18.063Z,77.20
2022-11-08T02:25:18.228Z,77.22
2022-11-08T02:26:18.051Z,77.20
2022-11-08T02:27:18.042Z,77.22
2022-11-08T02:28:18.364Z,77.22
2022-11-08T02:29:18.172Z,77.31
2022-11-08T02:30:18.103Z,77.31
2022-11-08T02:31:18.363Z,77.33
2022-11-08T02:32:17.982Z,77.36
2022-11-08T02:33:17.974Z,77.37
2022-11-08T02:34:17.964Z,77.37
2022-11-08T02:35:17.964Z,77.42
2022-11-08T02:36:17.954Z,77.45
2022-11-08T02:37:18.088Z,77.51
2022-11-08T02:38:18.282Z,77.64
2022-11-08T02:39:18.059Z,77.75
2022-11-08T02:40:17.887Z,77.81
2022-11-08T02:41:17.909Z,77.90
2022-11-08T02:42:17.877Z,77.88
2022-11-08T02:43:17.863Z,77.85
2022-11-08T02:44:18.016Z,77.88
2022-11-08T02:45:17.848Z,77.91
2022-11-08T02:46:17.822Z,77.93
2022-11-08T02:47:17.821Z,77.99
2022-11-08T02:48:18.071Z,78.01
2022-11-08T02:49:17.795Z,77.96
2022-11-08T02:50:17.954Z,77.95
2022-11-08T02:51:17.773Z,77.89
2022-11-08T02:52:17.762Z,77.88
2022-11-08T02:53:17.925Z,77.83
2022-11-08T02:54:17.733Z,77.82
2022-11-08T02:55:17.745Z,77.86
2022-11-08T02:56:17.723Z,77.89
2022-11-08T02:57:17.711Z,77.93
2022-11-08T02:58:17.991Z,77.95
2022-11-08T02:59:17.842Z,77.98
2022-11-08T03:00:17.678Z,78.01
2022-11-08T03:01:17.744Z,77.96
2022-11-08T03:02:17.789Z,77.93
2022-11-08T03:03:17.660Z,77.95
2022-11-08T03:04:17.809Z,77.78
2022-11-08T03:05:17.629Z,77.70
2022-11-08T03:06:17.611Z,77.67
2022-11-08T03:07:22.158Z,77.60
2022-11-08T03:08:18.931Z,77.61
2022-11-08T03:09:17.589Z,77.61
2022-11-08T03:10:17.892Z,77.70
2022-11-08T03:11:17.567Z,77.76
2022-11-08T03:12:17.552Z,77.85
2022-11-08T03:13:17.532Z,77.95
2022-11-08T03:14:17.536Z,78.02
2022-11-08T03:15:17.521Z,77.99
2022-11-08T03:16:17.695Z,77.99
2022-11-08T03:17:17.482Z,77.99
2022-11-08T03:18:17.796Z,77.97
2022-11-08T03:19:17.480Z,77.94
2022-11-08T03:20:17.455Z,77.94
2022-11-08T03:21:17.635Z,77.94
2022-11-08T03:22:17.438Z,77.95
2022-11-08T03:23:17.422Z,77.94
2022-11-08T03:24:17.414Z,78.04
2022-11-08T03:25:17.560Z,78.00
2022-11-08T03:26:17.398Z,77.98
2022-11-08T03:27:17.384Z,77.92
2022-11-08T03:28:22.504Z,77.91
2022-11-08T03:29:18.392Z,77.92
2022-11-08T03:30:17.342Z,77.94
2022-11-08T03:31:17.499Z,77.96
2022-11-08T03:32:17.343Z,78.18
2022-11-08T03:33:17.312Z,78.23
2022-11-08T03:34:17.303Z,78.18
2022-11-08T03:35:17.314Z,78.27
2022-11-08T03:36:17.434Z,78.27
2022-11-08T03:37:17.273Z,78.22
2022-11-08T03:38:17.526Z,78.15
2022-11-08T03:39:17.432Z,78.14
2022-11-08T03:40:17.242Z,78.13
2022-11-08T03:41:17.230Z,78.09
2022-11-08T03:42:17.221Z,77.94
2022-11-08T03:43:17.200Z,77.88
2022-11-08T03:44:17.184Z,77.88
2022-11-08T03:45:17.351Z,77.80
2022-11-08T03:46:17.183Z,77.69
2022-11-08T03:47:17.162Z,77.75
2022-11-08T03:48:17.383Z,77.92
2022-11-08T03:49:17.152Z,77.89
2022-11-08T03:50:17.134Z,77.83
2022-11-08T03:51:17.279Z,77.78
2022-11-08T03:52:17.125Z,77.76
2022-11-08T03:53:17.104Z,77.71
2022-11-08T03:54:17.089Z,77.73
2022-11-08T03:55:17.074Z,77.81
2022-11-08T03:56:17.288Z,77.80
2022-11-08T03:57:17.050Z,77.81
2022-11-08T03:58:17.506Z,77.86
2022-11-08T03:59:17.051Z,77.76
2022-11-08T04:00:17.020Z,77.73
2022-11-08T04:01:17.286Z,77.50
2022-11-08T04:02:17.077Z,77.37
2022-11-08T04:03:17.005Z,77.33
2022-11-08T04:04:16.974Z,77.33
2022-11-08T04:05:16.960Z,77.44
2022-11-08T04:06:16.946Z,77.37
2022-11-08T04:07:17.087Z,77.39
2022-11-08T04:08:17.314Z,77.47
2022-11-08T04:09:21.335Z,77.50
2022-11-08T04:10:16.903Z,77.51
2022-11-08T04:11:16.888Z,77.58
2022-11-08T04:12:16.895Z,77.66
2022-11-08T04:13:16.891Z,77.77
2022-11-08T04:14:17.055Z,77.77
2022-11-08T04:15:16.837Z,77.80
2022-11-08T04:16:18.082Z,77.80
2022-11-08T04:17:16.832Z,77.80
2022-11-08T04:18:17.408Z,77.77
2022-11-08T04:19:16.799Z,77.81
2022-11-08T04:20:17.027Z,77.83
2022-11-08T04:21:16.789Z,77.72
2022-11-08T04:22:16.781Z,77.69
2022-11-08T04:23:16.771Z,77.71
2022-11-08T04:24:16.757Z,77.65
2022-11-08T04:25:16.760Z,77.62
2022-11-08T04:26:16.960Z,77.66
2022-11-08T04:27:16.723Z,77.72
2022-11-08T04:28:17.147Z,77.73
2022-11-08T04:29:16.694Z,77.71
2022-11-08T04:30:16.698Z,77.77
2022-11-08T04:31:16.699Z,77.88
2022-11-08T04:32:16.944Z,77.81
2022-11-08T04:33:16.661Z,77.69
2022-11-08T04:34:16.652Z,77.70
2022-11-08T04:35:16.641Z,77.74
2022-11-08T04:36:16.626Z,77.80
2022-11-08T04:37:16.614Z,77.79
2022-11-08T04:38:17.182Z,77.74
2022-11-08T04:39:16.603Z,77.81
2022-11-08T04:40:16.579Z,77.88
2022-11-08T04:41:16.597Z,77.85
2022-11-08T04:42:16.557Z,77.89
2022-11-08T04:43:16.547Z,77.93
2022-11-08T04:44:16.697Z,78.01
2022-11-08T04:45:16.517Z,77.97
2022-11-08T04:46:16.516Z,77.98
2022-11-08T04:47:16.500Z,77.98
2022-11-08T04:48:16.821Z,78.01
2022-11-08T04:49:16.637Z,78.01
2022-11-08T04:50:16.470Z,78.09
2022-11-08T04:51:16.461Z,78.11
2022-11-08T04:52:16.607Z,78.10
2022-11-08T04:53:16.438Z,78.14
2022-11-08T04:54:16.425Z,78.04
2022-11-08T04:55:16.455Z,78.08
2022-11-08T04:56:16.401Z,78.12
2022-11-08T04:57:16.389Z,78.06
2022-11-08T04:58:16.878Z,78.09
2022-11-08T04:59:16.373Z,78.06
2022-11-08T05:00:16.366Z,78.05
2022-11-08T05:01:16.465Z,78.06
2022-11-08T05:02:16.456Z,78.04
2022-11-08T05:03:16.330Z,78.08
2022-11-08T05:04:16.554Z,78.17
2022-11-08T05:05:16.489Z,78.20
2022-11-08T05:06:16.296Z,78.25
2022-11-08T05:07:16.277Z,78.29
2022-11-08T05:08:16.515Z,78.30
2022-11-08T05:09:16.257Z,78.35
2022-11-08T05:10:16.408Z,78.43
2022-11-08T05:11:16.236Z,78.45
2022-11-08T05:12:16.240Z,78.42
2022-11-08T05:13:16.216Z,78.46
2022-11-08T05:14:16.206Z,78.39
2022-11-08T05:15:16.207Z,78.47
2022-11-08T05:16:16.372Z,78.54
2022-11-08T05:17:16.167Z,78.54
2022-11-08T05:18:16.680Z,78.53
2022-11-08T05:19:16.147Z,78.58
2022-11-08T05:20:16.139Z,78.79
2022-11-08T05:21:16.125Z,78.95
2022-11-08T05:22:16.345Z,78.97
2022-11-08T05:23:16.108Z,79.07
2022-11-08T05:24:16.097Z,78.95
2022-11-08T05:25:16.088Z,78.77
2022-11-08T05:26:16.083Z,78.89
2022-11-08T05:27:16.059Z,78.69
2022-11-08T05:28:16.430Z,78.57
2022-11-08T05:29:16.059Z,78.70
2022-11-08T05:30:16.031Z,78.81
2022-11-08T05:31:16.040Z,78.85
2022-11-08T05:32:16.005Z,78.86
2022-11-08T05:33:15.999Z,78.79
2022-11-08T05:34:16.164Z,78.61
2022-11-08T05:35:15.977Z,79.23
2022-11-08T05:36:15.964Z,79.62
2022-11-08T05:37:15.955Z,79.61
2022-11-08T05:38:16.287Z,79.23
2022-11-08T05:39:16.102Z,79.03
2022-11-08T05:40:15.917Z,78.98
2022-11-08T05:41:15.908Z,78.99
2022-11-08T05:42:15.903Z,78.90
2022-11-08T05:43:16.271Z,79.11
2022-11-08T05:44:15.934Z,79.23
2022-11-08T05:45:16.047Z,79.37
2022-11-08T05:46:15.908Z,79.52
2022-11-08T05:47:15.834Z,79.29
2022-11-08T05:48:16.225Z,79.27
2022-11-08T05:49:16.009Z,78.97
2022-11-08T05:50:19.387Z,78.87
2022-11-08T05:51:15.806Z,78.89
2022-11-08T05:52:15.789Z,79.44
2022-11-08T05:53:16.203Z,79.63
2022-11-08T05:54:15.784Z,79.90
2022-11-08T05:55:15.937Z,80.25
2022-11-08T05:56:15.769Z,80.38
2022-11-08T05:57:19.890Z,80.35
2022-11-08T05:58:16.746Z,80.49
2022-11-08T05:59:15.717Z,80.40
2022-11-08T06:00:15.716Z,80.32
2022-11-08T06:01:15.855Z,80.25
2022-11-08T06:02:15.793Z,80.17
2022-11-08T06:03:19.695Z,80.13
2022-11-08T06:04:16.674Z,80.20
2022-11-08T06:05:15.815Z,80.26
2022-11-08T06:06:15.626Z,80.24
2022-11-08T06:07:15.620Z,80.13
2022-11-08T06:08:15.616Z,80.09
2022-11-08T06:09:15.599Z,80.02
2022-11-08T06:10:15.600Z,79.87
2022-11-08T06:11:15.740Z,79.50
2022-11-08T06:12:15.569Z,79.26
2022-11-08T06:13:15.576Z,79.08
2022-11-08T06:14:15.556Z,78.89
2022-11-08T06:15:15.534Z,78.76
2022-11-08T06:16:15.732Z,78.61
2022-11-08T06:17:15.518Z,78.63
2022-11-08T06:18:15.518Z,78.66
2022-11-08T06:19:15.555Z,78.69
2022-11-08T06:20:15.485Z,78.76
2022-11-08T06:21:15.492Z,78.93
2022-11-08T06:22:15.669Z,79.03
2022-11-08T06:23:15.674Z,79.17
2022-11-08T06:24:15.438Z,79.24
2022-11-08T06:25:15.424Z,79.28
2022-11-08T06:26:15.419Z,79.33
2022-11-08T06:27:15.606Z,79.26
2022-11-08T06:28:15.394Z,79.23
2022-11-08T06:29:15.384Z,79.29
2022-11-08T06:30:15.380Z,79.34
2022-11-08T06:31:15.355Z,79.33
2022-11-08T06:32:15.362Z,79.27
2022-11-08T06:33:15.971Z,79.28
2022-11-08T06:34:15.623Z,79.30
2022-11-08T06:35:15.322Z,79.29
2022-11-08T06:36:15.312Z,79.24
2022-11-08T06:37:15.301Z,79.17
2022-11-08T06:38:15.285Z,79.24
2022-11-08T06:39:15.445Z,79.30
2022-11-08T06:40:15.294Z,79.37
2022-11-08T06:41:15.246Z,79.36
2022-11-08T06:42:15.238Z,79.20
2022-11-08T06:43:19.611Z,79.28
2022-11-08T06:44:16.380Z,79.30
2022-11-08T06:45:15.205Z,79.31
2022-11-08T06:46:15.427Z,79.39
2022-11-08T06:47:15.197Z,79.37
2022-11-08T06:48:15.189Z,79.36
2022-11-08T06:49:15.167Z,79.35
2022-11-08T06:50:15.158Z,79.39
2022-11-08T06:51:15.192Z,79.31
2022-11-08T06:52:15.302Z,79.24
2022-11-08T06:53:15.453Z,79.24
2022-11-08T06:54:17.820Z,79.25
2022-11-08T06:55:15.099Z,79.35
2022-11-08T06:56:15.082Z,79.32
2022-11-08T06:57:15.314Z,79.29
2022-11-08T06:58:15.069Z,79.32
2022-11-08T06:59:15.053Z,79.34
2022-11-08T07:00:15.080Z,79.37
2022-11-08T07:01:15.060Z,79.30
2022-11-08T07:02:15.207Z,79.29
2022-11-08T07:03:15.455Z,79.28
2022-11-08T07:04:15.015Z,79.29
2022-11-08T07:05:15.021Z,79.23
2022-11-08T07:06:14.980Z,79.06
2022-11-08T07:07:14.971Z,79.00
2022-11-08T07:08:15.407Z,78.99
2022-11-08T07:09:14.984Z,78.95
2022-11-08T07:10:14.933Z,78.94
2022-11-08T07:11:14.933Z,78.97
2022-11-08T07:12:14.913Z,78.97
2022-11-08T07:13:15.117Z,78.93
2022-11-08T07:14:15.275Z,78.86
2022-11-08T07:15:15.096Z,78.83
2022-11-08T07:16:14.872Z,78.87
2022-11-08T07:17:14.898Z,78.82
2022-11-08T07:18:14.904Z,78.72
2022-11-08T07:19:14.840Z,78.49
2022-11-08T07:20:14.987Z,78.38
2022-11-08T07:21:14.820Z,78.37
2022-11-08T07:22:14.968Z,78.29
2022-11-08T07:23:14.817Z,78.15
2022-11-08T07:24:14.792Z,78.13
2022-11-08T07:25:14.772Z,78.13
2022-11-08T07:26:14.754Z,78.10
2022-11-08T07:27:14.926Z,78.12
2022-11-08T07:28:14.742Z,78.13
2022-11-08T07:29:16.158Z,78.00
2022-11-08T07:30:14.722Z,77.94
2022-11-08T07:31:14.702Z,77.92
2022-11-08T07:32:14.726Z,77.94
2022-11-08T07:33:14.867Z,77.97
2022-11-08T07:34:14.679Z,77.92
2022-11-08T07:35:14.663Z,77.86
2022-11-08T07:36:14.652Z,77.80
2022-11-08T07:37:14.653Z,77.72
2022-11-08T07:38:14.632Z,77.73
2022-11-08T07:39:14.785Z,77.77
2022-11-08T07:40:14.612Z,77.85
2022-11-08T07:41:14.605Z,77.96
2022-11-08T07:42:14.590Z,77.91
2022-11-08T07:43:14.586Z,77.83
2022-11-08T07:44:14.565Z,77.75
2022-11-08T07:45:14.713Z,77.59
2022-11-08T07:46:14.544Z,77.53
2022-11-08T07:47:14.532Z,77.50
2022-11-08T07:48:14.534Z,77.51
2022-11-08T07:49:14.502Z,77.52
2022-11-08T07:50:17.811Z,77.46
2022-11-08T07:51:14.673Z,77.45
2022-11-08T07:52:14.476Z,77.50
2022-11-08T07:53:14.675Z,77.62
2022-11-08T07:54:14.475Z,77.68
2022-11-08T07:55:14.464Z,77.75
2022-11-08T07:56:14.612Z,77.79
2022-11-08T07:57:14.419Z,77.72
2022-11-08T07:58:14.421Z,77.71
2022-11-08T07:59:14.408Z,77.66
2022-11-08T08:00:14.392Z,77.53
2022-11-08T08:01:14.373Z,77.55
2022-11-08T08:02:14.690Z,77.54
2022-11-08T08:03:14.786Z,77.54
2022-11-08T08:04:14.342Z,77.53
2022-11-08T08:05:14.462Z,77.39
2022-11-08T08:06:14.327Z,77.29
2022-11-08T08:07:14.342Z,77.31
2022-11-08T08:08:14.306Z,77.26
2022-11-08T08:09:14.482Z,77.15
2022-11-08T08:10:14.283Z,77.00
2022-11-08T08:11:14.283Z,77.00
2022-11-08T08:12:14.268Z,76.99
2022-11-08T08:13:14.470Z,76.95
2022-11-08T08:14:14.248Z,76.86
2022-11-08T08:15:14.226Z,77.07
2022-11-08T08:16:14.231Z,77.12
2022-11-08T08:17:14.208Z,76.77
2022-11-08T08:18:14.221Z,76.55
2022-11-08T08:19:14.337Z,76.60
2022-11-08T08:20:14.364Z,76.65
2022-11-08T08:21:14.159Z,76.50
2022-11-08T08:22:14.152Z,76.54
2022-11-08T08:23:14.142Z,76.47
2022-11-08T08:24:14.129Z,76.37
2022-11-08T08:25:14.131Z,76.19
2022-11-08T08:26:14.296Z,76.12
2022-11-08T08:27:14.094Z,76.08
2022-11-08T08:28:14.079Z,76.04
2022-11-08T08:29:14.072Z,75.94
2022-11-08T08:30:14.062Z,75.90
2022-11-08T08:31:14.212Z,75.88
2022-11-08T08:32:14.037Z,75.85
2022-11-08T08:33:34.085Z,75.60
2022-11-08T08:34:15.011Z,75.61
2022-11-08T08:35:14.011Z,75.52
2022-11-08T08:36:14.163Z,75.46
2022-11-08T08:37:13.981Z,75.29
2022-11-08T08:38:13.991Z,74.94
2022-11-08T08:39:13.978Z,74.90
2022-11-08T08:40:13.951Z,75.17
2022-11-08T08:41:13.941Z,75.18
2022-11-08T08:42:14.139Z,75.23
2022-11-08T08:43:13.924Z,75.07
2022-11-08T08:44:13.902Z,75.06
2022-11-08T08:45:15.263Z,74.97
2022-11-08T08:46:13.881Z,74.96
2022-11-08T08:47:14.037Z,74.76
2022-11-08T08:48:13.861Z,74.46
2022-11-08T08:49:13.854Z,73.77
2022-11-08T08:50:13.992Z,73.44
2022-11-08T08:51:13.850Z,73.31
2022-11-08T08:52:13.836Z,73.20
2022-11-08T08:53:13.969Z,73.11
2022-11-08T08:54:13.807Z,72.94
2022-11-08T08:55:13.800Z,72.24
2022-11-08T08:56:13.787Z,71.84
2022-11-08T08:57:13.770Z,71.70
2022-11-08T08:58:13.787Z,71.58
2022-11-08T09:02:14.721Z,70.08
2022-11-08T09:03:13.710Z,70.15
2022-11-08T09:04:13.686Z,70.12
2022-11-08T09:05:13.831Z,70.34
2022-11-08T09:06:13.684Z,70.37
2022-11-08T09:07:13.713Z,70.03
2022-11-08T09:08:13.646Z,69.81
2022-11-08T09:09:13.634Z,69.82
2022-11-08T09:10:13.629Z,70.00
2022-11-08T09:11:13.796Z,69.79
2022-11-08T09:12:14.822Z,69.12
2022-11-08T09:13:13.595Z,69.24
2022-11-08T09:14:13.580Z,69.04
2022-11-08T09:15:13.568Z,69.13
2022-11-08T09:16:13.565Z,69.51
2022-11-08T09:17:13.751Z,69.42
2022-11-08T09:18:13.577Z,69.09
2022-11-08T09:19:13.558Z,68.67
2022-11-08T09:20:13.518Z,68.28
2022-11-08T09:21:13.545Z,67.99
2022-11-08T09:22:13.530Z,67.42
2022-11-08T09:23:13.644Z,67.19
2022-11-08T09:24:13.470Z,66.80
2022-11-08T09:25:13.477Z,66.64
2022-11-08T09:26:13.447Z,66.61
2022-11-08T09:27:13.441Z,66.37
2022-11-08T09:28:13.424Z,66.29
2022-11-08T09:29:13.669Z,66.00
2022-11-08T09:30:13.421Z,66.30
2022-11-08T09:31:13.394Z,65.92
2022-11-08T09:32:13.388Z,65.55
2022-11-08T09:33:13.389Z,65.51
2022-11-08T09:34:16.275Z,65.57
2022-11-08T09:35:14.511Z,65.73
2022-11-08T09:36:13.349Z,65.10
2022-11-08T09:37:13.342Z,64.73
2022-11-08T09:38:13.337Z,64.47
2022-11-08T09:39:13.304Z,64.46
2022-11-08T09:40:13.359Z,64.36
2022-11-08T09:41:13.453Z,64.00
2022-11-08T09:42:13.271Z,64.05
2022-11-08T09:43:13.268Z,63.99
2022-11-08T09:44:13.261Z,63.46
2022-11-08T09:45:13.256Z,63.27
2022-11-08T09:46:13.221Z,63.53
2022-11-08T09:47:13.382Z,63.81
2022-11-08T09:48:13.212Z,64.14
2022-11-08T09:49:13.200Z,63.97
2022-11-08T09:50:13.208Z,64.00
2022-11-08T09:51:13.170Z,64.10
2022-11-08T09:52:13.531Z,63.81
2022-11-08T09:53:13.151Z,63.52
2022-11-08T09:54:17.070Z,63.31
2022-11-08T09:55:14.141Z,63.14
2022-11-08T09:56:13.125Z,63.22
2022-11-08T09:57:13.111Z,63.17
2022-11-08T09:58:13.123Z,63.28
2022-11-08T09:59:13.093Z,63.19
2022-11-08T10:00:13.083Z,63.21
2022-11-08T10:01:13.146Z,63.25
2022-11-08T10:02:13.134Z,63.27
2022-11-08T10:03:13.105Z,63.34
2022-11-08T10:04:13.031Z,63.20
2022-11-08T10:05:13.029Z,63.23
2022-11-08T10:06:13.033Z,63.30
2022-11-08T10:07:13.008Z,63.02
2022-11-08T10:08:13.010Z,62.93
2022-11-08T10:09:13.012Z,63.00
2022-11-08T10:10:12.966Z,63.25
2022-11-08T10:11:12.966Z,63.50
2022-11-08T10:12:12.939Z,63.58
2022-11-08T10:13:12.942Z,63.38
2022-11-08T10:14:12.934Z,63.15
2022-11-08T10:15:13.075Z,62.78
2022-11-08T10:16:12.901Z,62.89
2022-11-08T10:17:12.920Z,62.75
2022-11-08T10:18:12.884Z,62.89
2022-11-08T10:19:12.882Z,62.61
2022-11-08T10:20:12.860Z,62.65
2022-11-08T10:21:12.879Z,62.62
2022-11-08T10:22:12.831Z,62.38
2022-11-08T10:23:12.854Z,62.43
2022-11-08T10:24:12.835Z,62.31
2022-11-08T10:25:12.807Z,62.08
2022-11-08T10:26:12.805Z,62.08
2022-11-08T10:27:13.101Z,62.35
2022-11-08T10:28:12.770Z,62.37
2022-11-08T10:29:12.787Z,62.40
2022-11-08T10:30:12.762Z,62.49
2022-11-08T10:31:12.742Z,62.37
2022-11-08T10:32:12.725Z,62.04
2022-11-08T10:33:12.928Z,61.79
2022-11-08T10:34:12.705Z,61.46
2022-11-08T10:35:12.692Z,61.29
2022-11-08T10:36:12.680Z,61.30
2022-11-08T10:37:12.669Z,61.48
2022-11-08T10:38:12.663Z,61.06
2022-11-08T10:39:12.859Z,60.94
2022-11-08T10:40:12.631Z,60.34
2022-11-08T10:41:12.634Z,60.38
2022-11-08T10:42:12.622Z,60.58
2022-11-08T10:43:12.607Z,60.55
2022-11-08T10:44:12.598Z,60.27
2022-11-08T10:45:12.799Z,60.23
2022-11-08T10:46:12.575Z,59.90
2022-11-08T10:47:12.563Z,59.73
2022-11-08T10:48:12.562Z,59.72
2022-11-08T10:49:12.542Z,59.65
2022-11-08T10:50:12.684Z,59.81
2022-11-08T10:51:12.518Z,59.70
2022-11-08T10:52:12.521Z,59.50
2022-11-08T10:53:12.510Z,59.25
2022-11-08T10:54:12.485Z,59.56
2022-11-08T10:55:12.660Z,59.71
2022-11-08T10:56:12.474Z,59.56
2022-11-08T10:57:12.461Z,59.58
2022-11-08T10:58:12.450Z,59.65
2022-11-08T10:59:12.432Z,59.58
2022-11-08T11:00:12.423Z,59.38
2022-11-08T11:01:12.602Z,59.40
2022-11-08T11:02:12.499Z,59.37
2022-11-08T11:03:12.392Z,59.20
2022-11-08T11:04:12.377Z,59.26
2022-11-08T11:05:12.375Z,59.35
2022-11-08T11:06:12.355Z,59.37
2022-11-08T11:07:12.608Z,59.45
2022-11-08T11:08:12.341Z,59.19
2022-11-08T11:09:12.321Z,59.05
2022-11-08T11:10:12.314Z,58.97
2022-11-08T11:11:12.300Z,57.90
2022-11-08T11:12:12.287Z,57.81
2022-11-08T11:13:12.520Z,57.80
2022-11-08T11:14:16.281Z,57.87
2022-11-08T11:15:13.250Z,57.24
2022-11-08T11:16:12.271Z,57.30
2022-11-08T11:17:12.273Z,57.34
2022-11-08T11:18:12.231Z,57.30
2022-11-08T11:19:12.361Z,57.32
2022-11-08T11:20:12.201Z,57.57
2022-11-08T11:21:12.199Z,57.15
2022-11-08T11:22:12.172Z,56.82
2022-11-08T11:23:12.168Z,56.83
2022-11-08T11:24:15.442Z,56.50
2022-11-08T11:25:13.162Z,56.43
2022-11-08T11:26:12.130Z,55.85
2022-11-08T11:27:12.128Z,54.92
2022-11-08T11:28:12.110Z,55.04
2022-11-08T11:29:12.275Z,55.04
2022-11-08T11:30:12.111Z,54.96
2022-11-08T11:31:12.090Z,54.83
2022-11-08T11:32:12.072Z,54.80
2022-11-08T11:33:12.084Z,54.67
2022-11-08T11:34:12.052Z,54.75
2022-11-08T11:35:12.210Z,54.76
2022-11-08T11:36:13.693Z,54.80
2022-11-08T11:37:12.032Z,54.82
2022-11-08T11:38:12.002Z,54.71
2022-11-08T11:39:11.999Z,54.90
2022-11-08T11:40:11.980Z,55.16
2022-11-08T11:41:12.201Z,55.23
2022-11-08T11:42:39.046Z,55.25
2022-11-08T11:43:12.955Z,55.36
2022-11-08T11:44:11.933Z,55.24
2022-11-08T11:45:11.931Z,55.20
2022-11-08T11:46:12.086Z,55.28
2022-11-08T11:47:12.060Z,55.37
2022-11-08T11:48:11.899Z,55.28
2022-11-08T11:49:11.886Z,55.10
2022-11-08T11:50:11.870Z,54.79
2022-11-08T11:51:11.906Z,54.80
2022-11-08T11:52:12.034Z,54.42
2022-11-08T11:53:11.842Z,54.55
2022-11-08T11:54:11.831Z,54.47
2022-11-08T11:55:11.812Z,54.54
2022-11-08T11:56:11.801Z,54.61
2022-11-08T11:57:11.794Z,53.95
2022-11-08T11:58:12.019Z,53.99
2022-11-08T11:59:11.770Z,54.00
2022-11-08T12:00:11.752Z,54.15
2022-11-08T12:01:14.435Z,54.48
2022-11-08T12:02:11.778Z,54.45
2022-11-08T12:03:11.725Z,54.24
2022-11-08T12:04:12.084Z,54.21
2022-11-08T12:05:11.701Z,54.36
2022-11-08T12:06:11.722Z,54.57
2022-11-08T12:07:11.787Z,54.69
2022-11-08T12:08:11.705Z,54.71
2022-11-08T12:09:11.831Z,54.80
2022-11-08T12:10:11.642Z,54.67
2022-11-08T12:11:11.642Z,54.65
2022-11-08T12:12:11.630Z,54.51
2022-11-08T12:13:11.623Z,54.41
2022-11-08T12:14:11.773Z,54.52
2022-11-08T12:15:11.600Z,54.58
2022-11-08T12:16:11.590Z,54.50
2022-11-08T12:17:11.580Z,54.32
2022-11-08T12:18:12.035Z,54.31
2022-11-08T12:19:11.550Z,54.15
2022-11-08T12:20:12.047Z,54.33
2022-11-08T12:21:11.549Z,54.47
2022-11-08T12:22:11.542Z,54.54
2022-11-08T12:23:11.520Z,54.36
2022-11-08T12:24:11.531Z,54.44
2022-11-08T12:25:11.637Z,54.43
2022-11-08T12:26:11.464Z,54.49
2022-11-08T12:27:11.465Z,54.29
2022-11-08T12:28:11.462Z,54.09
2022-11-08T12:29:11.444Z,54.14
2022-11-08T12:30:11.739Z,54.05
2022-11-08T12:31:11.419Z,53.94
2022-11-08T12:32:11.422Z,53.86
2022-11-08T12:33:11.409Z,53.82
2022-11-08T12:34:11.391Z,53.87
2022-11-08T12:35:11.531Z,53.88
2022-11-08T12:36:11.370Z,54.01
2022-11-08T12:37:11.355Z,54.05
2022-11-08T12:38:11.347Z,54.07
2022-11-08T12:39:11.337Z,54.05
2022-11-08T12:40:11.372Z,54.07
2022-11-08T12:41:11.482Z,53.81
2022-11-08T12:42:11.304Z,53.69
2022-11-08T12:43:11.291Z,53.62
2022-11-08T12:44:11.282Z,53.54
2022-11-08T12:45:11.280Z,53.32
2022-11-08T12:46:11.253Z,53.27
2022-11-08T12:47:11.420Z,53.33
2022-11-08T12:48:11.230Z,53.21
2022-11-08T12:49:11.213Z,53.25
2022-11-08T12:50:11.252Z,53.29
2022-11-08T12:51:11.197Z,53.24
2022-11-08T12:52:11.185Z,53.21
2022-11-08T12:53:11.332Z,53.26
2022-11-08T12:54:11.162Z,53.31
2022-11-08T12:55:11.153Z,52.75
2022-11-08T12:56:11.141Z,52.67
2022-11-08T12:57:11.136Z,52.52